createdAt,value
2016-10-20T00:00:08.319Z,87.41
2016-10-20T00:01:08.518Z,87.48
2016-10-20T00:02:09.275Z,87.25
2016-10-20T00:03:08.200Z,87.29
2016-10-20T00:04:07.913Z,87.31
2016-10-20T00:05:07.991Z,87.23
2016-10-20T00:06:07.769Z,87.05
2016-10-20T00:07:08.646Z,87.27
2016-10-20T00:08:08.820Z,87.68
2016-10-20T00:09:08.663Z,87.87
2016-10-20T00:10:08.758Z,87.72
2016-10-20T00:11:08.653Z,87.97
2016-10-20T00:12:08.692Z,88.42
2016-10-20T00:13:11.509Z,88.97
2016-10-20T00:14:08.431Z,87.88
2016-10-20T00:15:08.257Z,88.39
2016-10-20T00:16:07.931Z,89.06
2016-10-20T00:17:07.872Z,89.52
2016-10-20T00:18:09.043Z,89.43
2016-10-20T00:19:07.839Z,88.95
2016-10-20T00:20:08.668Z,89.60
2016-10-20T00:21:08.362Z,89.43
2016-10-20T00:22:08.077Z,89.42
2016-10-20T00:23:07.778Z,89.68
2016-10-20T00:24:08.898Z,89.22
2016-10-20T00:25:09.241Z,88.73
2016-10-20T00:26:08.188Z,88.75
2016-10-20T00:27:08.198Z,89.58
2016-10-20T00:28:08.346Z,88.94
2016-10-20T00:29:08.350Z,88.99
2016-10-20T00:30:08.148Z,88.69
2016-10-20T00:31:08.584Z,89.15
2016-10-20T00:32:11.027Z,89.61
2016-10-20T00:33:07.672Z,90.00
2016-10-20T00:34:08.796Z,89.79
2016-10-20T00:35:08.841Z,90.03
2016-10-20T00:36:08.791Z,89.31
2016-10-20T00:37:08.926Z,88.77
2016-10-20T00:38:07.626Z,88.88
2016-10-20T00:39:08.373Z,89.33
2016-10-20T00:40:08.414Z,88.86
2016-10-20T00:41:09.268Z,88.18
2016-10-20T00:42:08.184Z,88.46
2016-10-20T00:43:08.153Z,88.64
2016-10-20T00:44:08.436Z,88.51
2016-10-20T00:45:08.489Z,88.84
2016-10-20T00:46:08.643Z,88.06
2016-10-20T00:47:09.004Z,88.11
2016-10-20T00:48:07.640Z,88.48
2016-10-20T00:49:08.808Z,87.80
2016-10-20T00:50:08.612Z,87.95
2016-10-20T00:51:08.902Z,88.25
2016-10-20T00:52:08.991Z,88.56
2016-10-20T00:53:07.645Z,88.07
2016-10-20T00:54:08.955Z,87.44
2016-10-20T00:55:07.655Z,88.01
2016-10-20T00:56:08.518Z,87.86
2016-10-20T00:57:08.764Z,87.48
2016-10-20T00:58:08.745Z,88.01
2016-10-20T00:59:08.917Z,88.36
2016-10-20T01:00:07.773Z,87.89
2016-10-20T01:01:08.845Z,87.99
2016-10-20T01:02:08.977Z,87.74
2016-10-20T01:03:07.674Z,87.27
2016-10-20T01:04:09.489Z,87.10
2016-10-20T01:05:08.485Z,87.23
2016-10-20T01:06:08.887Z,87.75
2016-10-20T01:07:09.022Z,87.09
2016-10-20T01:08:11.280Z,88.09
2016-10-20T01:09:08.232Z,87.56
2016-10-20T01:10:08.266Z,88.54
2016-10-20T01:11:08.456Z,88.20
2016-10-20T01:12:08.846Z,87.97
2016-10-20T01:13:08.864Z,88.23
2016-10-20T01:14:08.894Z,88.12
2016-10-20T01:15:09.164Z,87.47
2016-10-20T01:16:08.264Z,87.27
2016-10-20T01:17:08.558Z,88.09
2016-10-20T01:18:08.643Z,88.23
2016-10-20T01:19:08.914Z,88.04
2016-10-20T01:20:08.984Z,87.90
2016-10-20T01:21:07.692Z,87.75
2016-10-20T01:22:09.104Z,87.59
2016-10-20T01:23:07.872Z,86.95
2016-10-20T01:24:09.153Z,86.96
2016-10-20T01:25:08.166Z,87.71
2016-10-20T01:26:08.165Z,87.95
2016-10-20T01:27:08.300Z,87.60
2016-10-20T01:28:08.509Z,87.89
2016-10-20T01:29:08.623Z,87.72
2016-10-20T01:30:13.920Z,87.29
2016-10-20T01:31:07.919Z,86.49
2016-10-20T01:32:09.061Z,86.08
2016-10-20T01:33:08.797Z,86.73
2016-10-20T01:34:08.950Z,86.61
2016-10-20T01:35:08.621Z,87.98
2016-10-20T01:36:08.711Z,88.45
2016-10-20T01:37:08.788Z,88.90
2016-10-20T01:38:08.693Z,88.85
2016-10-20T01:39:08.897Z,88.91
2016-10-20T01:40:08.715Z,88.15
2016-10-20T01:41:08.528Z,88.17
2016-10-20T01:42:08.920Z,87.45
2016-10-20T01:43:09.230Z,87.66
2016-10-20T01:44:08.479Z,86.11
2016-10-20T01:45:08.545Z,85.69
2016-10-20T01:46:08.934Z,85.83
2016-10-20T01:47:07.689Z,85.83
2016-10-20T01:48:08.375Z,86.23
2016-10-20T01:49:08.184Z,87.01
2016-10-20T01:50:08.515Z,85.14
2016-10-20T01:51:08.779Z,84.27
2016-10-20T01:52:09.047Z,84.21
2016-10-20T01:53:08.116Z,84.87
2016-10-20T01:54:08.003Z,82.82
2016-10-20T01:55:08.063Z,82.99
2016-10-20T01:56:08.276Z,83.36
2016-10-20T01:57:08.203Z,83.60
2016-10-20T01:58:07.865Z,83.92
2016-10-20T01:59:08.818Z,82.08
2016-10-20T02:00:08.999Z,81.61
2016-10-20T02:01:08.228Z,81.58
2016-10-20T02:02:07.850Z,80.49
2016-10-20T02:03:08.586Z,81.30
2016-10-20T02:04:08.261Z,81.79
2016-10-20T02:05:08.197Z,82.56
2016-10-20T02:06:08.566Z,83.13
2016-10-20T02:07:09.354Z,83.59
2016-10-20T02:08:08.377Z,82.49
2016-10-20T02:09:08.505Z,82.87
2016-10-20T02:10:08.248Z,83.09
2016-10-20T02:11:08.549Z,83.21
2016-10-20T02:12:08.690Z,83.12
2016-10-20T02:13:08.936Z,83.25
2016-10-20T02:14:08.210Z,82.48
2016-10-20T02:15:08.333Z,82.73
2016-10-20T02:16:08.730Z,81.99
2016-10-20T02:17:09.944Z,83.03
2016-10-20T02:18:10.983Z,83.31
2016-10-20T02:19:13.300Z,82.22
2016-10-20T02:20:08.307Z,82.37
2016-10-20T02:21:08.049Z,82.70
2016-10-20T02:22:07.937Z,82.32
2016-10-20T02:23:07.567Z,82.34
2016-10-20T02:24:08.681Z,82.44
2016-10-20T02:25:08.684Z,82.15
2016-10-20T02:26:08.761Z,83.11
2016-10-20T02:27:08.944Z,83.60
2016-10-20T02:28:07.849Z,83.30
2016-10-20T02:29:08.847Z,81.63
2016-10-20T02:30:08.040Z,81.61
2016-10-20T02:31:08.598Z,82.46
2016-10-20T02:32:09.020Z,81.96
2016-10-20T02:33:08.264Z,82.53
2016-10-20T02:34:08.019Z,81.29
2016-10-20T02:35:07.938Z,82.16
2016-10-20T02:36:07.664Z,83.04
2016-10-20T02:37:09.079Z,82.40
2016-10-20T02:38:08.046Z,81.81
2016-10-20T02:39:13.539Z,81.96
2016-10-20T02:40:08.660Z,82.76
2016-10-20T02:41:08.605Z,82.70
2016-10-20T02:42:08.738Z,83.47
2016-10-20T02:43:08.701Z,83.27
2016-10-20T02:44:08.680Z,81.80
2016-10-20T02:45:08.004Z,82.15
2016-10-20T02:46:14.441Z,81.54
2016-10-20T02:47:08.611Z,81.92
2016-10-20T02:48:08.656Z,82.21
2016-10-20T02:49:08.278Z,82.56
2016-10-20T02:50:13.706Z,82.96
2016-10-20T02:51:08.597Z,83.68
2016-10-20T02:52:13.939Z,84.66
2016-10-20T02:53:07.955Z,83.04
2016-10-20T02:54:07.712Z,82.04
2016-10-20T02:55:08.645Z,82.48
2016-10-20T02:56:09.154Z,82.01
2016-10-20T02:57:08.249Z,82.60
2016-10-20T02:58:07.949Z,83.46
2016-10-20T02:59:07.960Z,82.94
2016-10-20T03:00:07.667Z,82.70
2016-10-20T03:01:09.009Z,84.18
2016-10-20T03:02:07.967Z,84.05
2016-10-20T03:03:08.031Z,83.74
2016-10-20T03:04:08.261Z,84.26
2016-10-20T03:05:15.009Z,81.84
2016-10-20T03:06:08.683Z,81.82
2016-10-20T03:07:08.499Z,82.06
2016-10-20T03:08:08.646Z,82.07
2016-10-20T03:09:08.691Z,82.01
2016-10-20T03:10:08.041Z,81.87
2016-10-20T03:11:07.721Z,81.97
2016-10-20T03:12:08.840Z,81.99
2016-10-20T03:13:09.189Z,81.47
2016-10-20T03:14:07.973Z,81.16
2016-10-20T03:15:07.731Z,81.73
2016-10-20T03:16:09.594Z,81.77
2016-10-20T03:17:08.558Z,81.98
2016-10-20T03:18:08.732Z,82.16
2016-10-20T03:19:08.809Z,81.42
2016-10-20T03:20:08.615Z,81.06
2016-10-20T03:21:08.451Z,81.81
2016-10-20T03:22:08.184Z,81.28
2016-10-20T03:23:13.388Z,80.42
2016-10-20T03:24:08.265Z,81.30
2016-10-20T03:25:08.303Z,81.26
2016-10-20T03:26:08.436Z,82.49
2016-10-20T03:27:08.583Z,81.52
2016-10-20T03:28:08.458Z,81.68
2016-10-20T03:29:08.366Z,81.32
2016-10-20T03:30:13.766Z,81.13
2016-10-20T03:31:08.728Z,80.45
2016-10-20T03:32:08.781Z,81.43
2016-10-20T03:33:09.791Z,81.42
2016-10-20T03:34:08.625Z,81.31
2016-10-20T03:35:08.712Z,80.95
2016-10-20T03:36:08.813Z,81.15
2016-10-20T03:37:08.897Z,81.53
2016-10-20T03:38:08.240Z,80.36
2016-10-20T03:39:09.071Z,80.81
2016-10-20T03:40:08.029Z,81.19
2016-10-20T03:41:07.974Z,80.86
2016-10-20T03:42:07.994Z,80.67
2016-10-20T03:43:07.889Z,81.92
2016-10-20T03:44:08.914Z,81.70
2016-10-20T03:45:08.986Z,81.89
2016-10-20T03:46:09.494Z,82.17
2016-10-20T03:47:08.335Z,82.41
2016-10-20T03:48:09.426Z,81.97
2016-10-20T03:49:08.369Z,81.68
2016-10-20T03:50:08.005Z,81.42
2016-10-20T03:51:07.732Z,81.72
2016-10-20T03:52:08.785Z,81.19
2016-10-20T03:53:08.657Z,81.95
2016-10-20T03:54:08.531Z,81.10
2016-10-20T03:55:08.434Z,82.23
2016-10-20T03:56:08.145Z,81.54
2016-10-20T03:57:07.745Z,81.91
2016-10-20T03:58:08.665Z,81.61
2016-10-20T03:59:08.716Z,81.84
2016-10-20T04:00:08.654Z,81.51
2016-10-20T04:01:08.495Z,82.32
2016-10-20T04:02:08.455Z,82.14
2016-10-20T04:03:08.760Z,81.26
2016-10-20T04:04:09.670Z,81.91
2016-10-20T04:05:08.726Z,81.58
2016-10-20T04:06:08.820Z,81.55
2016-10-20T04:07:08.689Z,81.96
2016-10-20T04:08:08.697Z,81.72
2016-10-20T04:09:08.709Z,81.70
2016-10-20T04:10:08.793Z,82.48
2016-10-20T04:11:09.099Z,82.49
2016-10-20T04:12:08.046Z,83.40
2016-10-20T04:13:08.154Z,82.10
2016-10-20T04:14:07.776Z,82.02
2016-10-20T04:15:08.562Z,82.10
2016-10-20T04:16:08.476Z,81.50
2016-10-20T04:17:08.366Z,81.39
2016-10-20T04:18:07.961Z,80.37
2016-10-20T04:19:07.601Z,80.92
2016-10-20T04:20:08.419Z,81.21
2016-10-20T04:21:08.794Z,81.05
2016-10-20T04:22:08.709Z,81.52
2016-10-20T04:23:08.804Z,81.05
2016-10-20T04:24:09.250Z,81.68
2016-10-20T04:25:11.153Z,81.36
2016-10-20T04:26:08.067Z,81.54
2016-10-20T04:27:08.134Z,81.41
2016-10-20T04:28:07.952Z,81.14
2016-10-20T04:29:07.806Z,81.14
2016-10-20T04:30:08.838Z,81.31
2016-10-20T04:31:08.699Z,81.17
2016-10-20T04:32:08.565Z,81.29
2016-10-20T04:33:08.477Z,81.65
2016-10-20T04:34:08.710Z,81.50
2016-10-20T04:35:08.889Z,82.15
2016-10-20T04:36:08.964Z,81.10
2016-10-20T04:37:07.539Z,81.22
2016-10-20T04:38:08.809Z,81.33
2016-10-20T04:39:08.790Z,81.88
2016-10-20T04:40:09.195Z,80.08
2016-10-20T04:41:08.226Z,80.88
2016-10-20T04:42:08.357Z,80.80
2016-10-20T04:43:09.103Z,80.97
2016-10-20T04:44:08.117Z,81.22
2016-10-20T04:45:08.469Z,80.85
2016-10-20T04:46:08.720Z,80.21
2016-10-20T04:47:08.810Z,80.21
2016-10-20T04:48:08.776Z,79.80
2016-10-20T04:49:12.117Z,80.58
2016-10-20T04:50:07.802Z,80.00
2016-10-20T04:51:08.659Z,79.45
2016-10-20T04:52:08.407Z,79.29
2016-10-20T04:53:08.156Z,79.54
2016-10-20T04:54:07.938Z,79.24
2016-10-20T04:55:08.180Z,78.71
2016-10-20T04:56:08.127Z,79.31
2016-10-20T04:57:07.834Z,79.46
2016-10-20T04:58:09.003Z,80.39
2016-10-20T04:59:07.936Z,79.87
2016-10-20T05:00:08.099Z,79.58
2016-10-20T05:01:10.563Z,79.89
2016-10-20T05:02:09.482Z,79.57
2016-10-20T05:03:08.466Z,80.11
2016-10-20T05:04:08.266Z,79.19
2016-10-20T05:05:08.505Z,78.96
2016-10-20T05:06:08.334Z,79.34
2016-10-20T05:07:08.575Z,78.79
2016-10-20T05:08:08.576Z,79.38
2016-10-20T05:09:08.644Z,79.04
2016-10-20T05:10:08.342Z,79.72
2016-10-20T05:11:07.985Z,79.35
2016-10-20T05:12:07.590Z,78.83
2016-10-20T05:13:08.467Z,79.25
2016-10-20T05:14:08.581Z,79.78
2016-10-20T05:15:08.539Z,79.76
2016-10-20T05:16:08.760Z,78.84
2016-10-20T05:17:08.919Z,79.90
2016-10-20T05:18:08.780Z,78.57
2016-10-20T05:19:08.905Z,79.29
2016-10-20T05:20:08.994Z,79.67
2016-10-20T05:21:07.656Z,80.11
2016-10-20T05:22:08.351Z,79.19
2016-10-20T05:23:08.036Z,78.94
2016-10-20T05:24:07.553Z,78.85
2016-10-20T05:25:08.649Z,78.57
2016-10-20T05:26:08.437Z,79.05
2016-10-20T05:27:08.237Z,78.64
2016-10-20T05:28:07.960Z,79.20
2016-10-20T05:29:07.670Z,79.61
2016-10-20T05:30:08.789Z,78.73
2016-10-20T05:31:08.790Z,79.07
2016-10-20T05:32:09.103Z,79.48
2016-10-20T05:33:08.107Z,79.66
2016-10-20T05:34:07.908Z,79.20
2016-10-20T05:35:09.540Z,80.04
2016-10-20T05:36:08.262Z,78.92
2016-10-20T05:37:08.316Z,78.77
2016-10-20T05:38:08.036Z,78.02
2016-10-20T05:39:07.875Z,78.83
2016-10-20T05:40:07.531Z,79.11
2016-10-20T05:41:08.621Z,79.79
2016-10-20T05:42:08.520Z,79.91
2016-10-20T05:43:08.635Z,78.22
2016-10-20T05:44:14.127Z,78.43
2016-10-20T05:45:07.899Z,78.30
2016-10-20T05:46:08.998Z,78.74
2016-10-20T05:47:07.631Z,78.01
2016-10-20T05:48:08.689Z,78.65
2016-10-20T05:49:08.756Z,78.96
2016-10-20T05:50:13.456Z,78.14
2016-10-20T05:51:08.609Z,78.22
2016-10-20T05:52:08.705Z,78.07
2016-10-20T05:53:08.932Z,78.21
2016-10-20T05:54:07.980Z,78.30
2016-10-20T05:55:07.857Z,78.39
2016-10-20T05:56:08.893Z,79.11
2016-10-20T05:57:14.601Z,78.44
2016-10-20T05:58:12.158Z,79.56
2016-10-20T05:59:08.226Z,78.87
2016-10-20T06:00:07.959Z,78.16
2016-10-20T06:01:13.266Z,79.27
2016-10-20T06:02:08.258Z,78.82
2016-10-20T06:03:08.203Z,79.22
2016-10-20T06:04:07.952Z,78.40
2016-10-20T06:05:07.714Z,78.70
2016-10-20T06:06:08.391Z,78.10
2016-10-20T06:07:08.244Z,77.42
2016-10-20T06:08:07.928Z,79.15
2016-10-20T06:09:09.171Z,79.01
2016-10-20T06:10:07.865Z,79.68
2016-10-20T06:11:08.635Z,79.33
2016-10-20T06:12:08.585Z,77.96
2016-10-20T06:13:08.555Z,78.65
2016-10-20T06:14:08.324Z,77.90
2016-10-20T06:15:08.345Z,78.33
2016-10-20T06:16:08.221Z,79.15
2016-10-20T06:17:08.347Z,79.15
2016-10-20T06:18:08.680Z,79.18
2016-10-20T06:19:08.676Z,79.04
2016-10-20T06:20:09.020Z,78.91
2016-10-20T06:21:07.878Z,79.46
2016-10-20T06:22:08.891Z,79.21
2016-10-20T06:23:08.915Z,79.41
2016-10-20T06:24:09.019Z,79.98
2016-10-20T06:25:07.631Z,78.84
2016-10-20T06:26:08.754Z,78.11
2016-10-20T06:27:09.045Z,78.69
2016-10-20T06:28:08.001Z,78.55
2016-10-20T06:29:08.008Z,77.98
2016-10-20T06:30:07.787Z,77.83
2016-10-20T06:31:09.041Z,78.42
2016-10-20T06:32:07.994Z,79.53
2016-10-20T06:33:07.650Z,79.78
2016-10-20T06:34:08.476Z,79.70
2016-10-20T06:35:08.397Z,79.92
2016-10-20T06:36:08.390Z,79.22
2016-10-20T06:37:08.289Z,78.89
2016-10-20T06:38:07.949Z,79.66
2016-10-20T06:39:13.170Z,79.17
2016-10-20T06:40:07.963Z,79.96
2016-10-20T06:41:07.619Z,79.53
2016-10-20T06:42:14.323Z,79.66
2016-10-20T06:43:08.331Z,78.91
2016-10-20T06:44:08.309Z,78.97
2016-10-20T06:45:08.373Z,80.39
2016-10-20T06:46:08.366Z,80.68
2016-10-20T06:47:08.282Z,81.28
2016-10-20T06:48:07.950Z,80.59
2016-10-20T06:49:07.839Z,79.66
2016-10-20T06:50:08.718Z,79.63
2016-10-20T06:51:08.760Z,79.74
2016-10-20T06:52:08.478Z,80.65
2016-10-20T06:53:08.254Z,80.19
2016-10-20T06:54:08.323Z,81.16
2016-10-20T06:55:07.946Z,80.54
2016-10-20T06:56:08.027Z,80.65
2016-10-20T06:57:07.949Z,80.05
2016-10-20T06:58:08.004Z,81.07
2016-10-20T06:59:07.905Z,81.01
2016-10-20T07:00:07.679Z,81.03
2016-10-20T07:01:08.876Z,80.16
2016-10-20T07:02:08.583Z,80.92
2016-10-20T07:03:08.298Z,79.97
2016-10-20T07:04:07.953Z,80.19
2016-10-20T07:05:08.332Z,78.63
2016-10-20T07:06:14.155Z,79.60
2016-10-20T07:07:08.076Z,80.24
2016-10-20T07:08:07.743Z,80.16
2016-10-20T07:09:08.799Z,80.86
2016-10-20T07:10:08.795Z,79.67
2016-10-20T07:11:08.975Z,80.19
2016-10-20T07:12:07.678Z,79.05
2016-10-20T07:13:08.928Z,79.09
2016-10-20T07:14:07.714Z,79.56
2016-10-20T07:15:08.613Z,78.38
2016-10-20T07:16:09.094Z,78.68
2016-10-20T07:17:07.969Z,78.97
2016-10-20T07:18:08.261Z,79.14
2016-10-20T07:19:08.068Z,78.98
2016-10-20T07:20:07.659Z,78.60
2016-10-20T07:21:08.326Z,77.56
2016-10-20T07:22:08.007Z,78.21
2016-10-20T07:23:07.749Z,78.44
2016-10-20T07:24:08.975Z,78.04
2016-10-20T07:25:08.009Z,77.85
2016-10-20T07:26:07.761Z,78.11
2016-10-20T07:27:08.530Z,77.95
2016-10-20T07:28:07.675Z,78.51
2016-10-20T07:29:08.338Z,78.48
2016-10-20T07:30:08.017Z,78.02
2016-10-20T07:31:08.098Z,77.94
2016-10-20T07:32:07.891Z,78.02
2016-10-20T07:33:08.885Z,77.68
2016-10-20T07:34:08.643Z,78.62
2016-10-20T07:35:08.392Z,78.30
2016-10-20T07:36:08.397Z,77.12
2016-10-20T07:37:08.330Z,76.11
2016-10-20T07:38:08.412Z,77.72
2016-10-20T07:39:08.420Z,77.98
2016-10-20T07:40:09.957Z,75.88
2016-10-20T07:41:08.323Z,77.03
2016-10-20T07:42:08.085Z,77.76
2016-10-20T07:43:13.499Z,78.22
2016-10-20T07:44:08.662Z,75.94
2016-10-20T07:45:08.485Z,76.03
2016-10-20T07:46:08.361Z,77.40
2016-10-20T07:47:08.051Z,76.00
2016-10-20T07:48:07.710Z,76.39
2016-10-20T07:49:08.479Z,75.97
2016-10-20T07:50:11.223Z,76.29
2016-10-20T07:51:08.076Z,76.82
2016-10-20T07:52:07.723Z,77.22
2016-10-20T07:53:08.829Z,76.10
2016-10-20T07:54:09.069Z,76.20
2016-10-20T07:55:07.727Z,75.72
2016-10-20T07:56:08.332Z,75.37
2016-10-20T07:57:07.717Z,74.65
2016-10-20T07:58:08.652Z,74.67
2016-10-20T07:59:08.535Z,74.76
2016-10-20T08:00:08.480Z,74.39
2016-10-20T08:01:08.461Z,74.09
2016-10-20T08:02:08.827Z,75.26
2016-10-20T08:03:09.894Z,75.21
2016-10-20T08:04:08.792Z,75.95
2016-10-20T08:05:08.695Z,75.18
2016-10-20T08:06:08.812Z,75.00
2016-10-20T08:07:09.211Z,75.07
2016-10-20T08:08:08.179Z,75.51
2016-10-20T08:09:13.396Z,75.70
2016-10-20T08:10:08.041Z,75.84
2016-10-20T08:11:07.791Z,74.35
2016-10-20T08:12:08.702Z,74.36
2016-10-20T08:13:08.477Z,74.84
2016-10-20T08:14:08.342Z,73.46
2016-10-20T08:15:08.042Z,74.24
2016-10-20T08:16:07.779Z,73.30
2016-10-20T08:17:08.674Z,73.89
2016-10-20T08:18:08.413Z,74.82
2016-10-20T08:19:08.248Z,74.07
2016-10-20T08:20:08.144Z,74.32
2016-10-20T08:21:08.072Z,73.81
2016-10-20T08:22:07.821Z,74.98
2016-10-20T08:23:08.864Z,73.54
2016-10-20T08:24:08.682Z,72.84
2016-10-20T08:25:08.748Z,73.21
2016-10-20T08:26:08.422Z,73.60
2016-10-20T08:27:08.474Z,74.44
2016-10-20T08:28:08.109Z,73.82
2016-10-20T08:29:07.825Z,72.50
2016-10-20T08:30:09.138Z,72.77
2016-10-20T08:31:08.062Z,72.74
2016-10-20T08:32:07.762Z,73.18
2016-10-20T08:33:08.767Z,73.37
2016-10-20T08:34:09.174Z,72.63
2016-10-20T08:35:07.949Z,72.61
2016-10-20T08:36:07.508Z,71.89
2016-10-20T08:37:08.259Z,72.31
2016-10-20T08:38:08.126Z,72.83
2016-10-20T08:39:07.773Z,71.60
2016-10-20T08:40:08.703Z,72.14
2016-10-20T08:41:08.453Z,72.25
2016-10-20T08:42:08.431Z,72.12
2016-10-20T08:43:08.145Z,71.68
2016-10-20T08:44:08.074Z,72.14
2016-10-20T08:45:07.574Z,72.10
2016-10-20T08:46:08.278Z,71.69
2016-10-20T08:47:08.242Z,71.60
2016-10-20T08:48:14.680Z,71.89
2016-10-20T08:49:08.878Z,70.84
2016-10-20T08:50:09.167Z,70.61
2016-10-20T08:51:08.128Z,71.33
2016-10-20T08:52:07.886Z,71.95
2016-10-20T08:53:07.811Z,70.62
2016-10-20T08:54:08.869Z,70.94
2016-10-20T08:55:07.816Z,71.23
2016-10-20T08:56:08.971Z,71.30
2016-10-20T08:57:07.657Z,70.59
2016-10-20T08:58:08.484Z,70.88
2016-10-20T08:59:08.611Z,71.21
2016-10-20T09:00:08.451Z,70.20
2016-10-20T09:01:08.565Z,71.06
2016-10-20T09:02:14.081Z,70.65
2016-10-20T09:03:07.908Z,70.98
2016-10-20T09:04:08.884Z,70.75
2016-10-20T09:05:08.971Z,70.52
2016-10-20T09:06:07.603Z,70.52
2016-10-20T09:07:08.463Z,70.49
2016-10-20T09:08:11.180Z,70.22
2016-10-20T09:09:07.901Z,69.54
2016-10-20T09:10:08.883Z,69.66
2016-10-20T09:11:08.798Z,70.17
2016-10-20T09:12:08.423Z,69.37
2016-10-20T09:13:08.165Z,70.16
2016-10-20T09:14:08.244Z,69.03
2016-10-20T09:15:08.035Z,69.45
2016-10-20T09:16:08.757Z,68.49
2016-10-20T09:17:08.848Z,69.00
2016-10-20T09:18:08.784Z,68.80
2016-10-20T09:19:08.511Z,68.57
2016-10-20T09:20:13.613Z,67.45
2016-10-20T09:21:08.322Z,67.72
2016-10-20T09:22:08.171Z,68.30
2016-10-20T09:23:07.834Z,68.04
2016-10-20T09:24:08.913Z,68.63
2016-10-20T09:25:08.667Z,68.58
2016-10-20T09:26:08.610Z,68.44
2016-10-20T09:27:08.682Z,68.26
2016-10-20T09:28:13.923Z,67.64
2016-10-20T09:29:07.520Z,67.96
2016-10-20T09:30:08.196Z,67.26
2016-10-20T09:31:11.611Z,67.61
2016-10-20T09:32:08.287Z,66.98
2016-10-20T09:33:07.888Z,66.91
2016-10-20T09:34:08.954Z,65.79
2016-10-20T09:35:07.987Z,65.94
2016-10-20T09:36:07.583Z,66.38
2016-10-20T09:37:08.474Z,66.48
2016-10-20T09:38:08.154Z,66.17
2016-10-20T09:39:07.934Z,66.53
2016-10-20T09:40:07.589Z,66.49
2016-10-20T09:41:08.604Z,66.37
2016-10-20T09:42:09.653Z,65.77
2016-10-20T09:43:08.596Z,65.69
2016-10-20T09:44:08.873Z,66.32
2016-10-20T09:45:08.907Z,65.46
2016-10-20T09:46:08.991Z,64.83
2016-10-20T09:47:07.610Z,65.68
2016-10-20T09:48:08.520Z,66.05
2016-10-20T09:49:08.199Z,66.11
2016-10-20T09:50:07.982Z,66.45
2016-10-20T09:51:07.526Z,66.61
2016-10-20T09:52:08.201Z,66.69
2016-10-20T09:53:07.777Z,67.33
2016-10-20T09:54:08.624Z,65.91
2016-10-20T09:55:15.143Z,66.03
2016-10-20T09:56:07.936Z,66.79
2016-10-20T09:57:07.462Z,66.67
2016-10-20T09:58:08.550Z,66.81
2016-10-20T09:59:08.473Z,66.69
2016-10-20T10:00:09.275Z,66.05
2016-10-20T10:01:08.168Z,66.34
2016-10-20T10:02:13.407Z,66.34
2016-10-20T10:03:08.221Z,66.02
2016-10-20T10:04:07.982Z,65.63
2016-10-20T10:05:07.543Z,66.35
2016-10-20T10:06:08.216Z,65.89
2016-10-20T10:07:07.732Z,66.17
2016-10-20T10:08:08.627Z,67.18
2016-10-20T10:09:08.524Z,66.99
2016-10-20T10:10:08.665Z,67.03
2016-10-20T10:11:08.625Z,65.95
2016-10-20T10:12:08.494Z,66.23
2016-10-20T10:13:08.332Z,66.71
2016-10-20T10:14:07.993Z,67.08
2016-10-20T10:15:07.566Z,67.29
2016-10-20T10:16:08.517Z,67.60
2016-10-20T10:17:08.555Z,66.70
2016-10-20T10:18:08.517Z,66.79
2016-10-20T10:19:08.514Z,66.73
2016-10-20T10:20:08.309Z,66.77
2016-10-20T10:21:08.310Z,66.72
2016-10-20T10:22:08.498Z,66.76
2016-10-20T10:23:08.298Z,66.72
2016-10-20T10:24:07.771Z,67.52
2016-10-20T10:25:08.576Z,66.64
2016-10-20T10:26:08.269Z,66.97
2016-10-20T10:27:08.141Z,66.74
2016-10-20T10:28:07.741Z,66.70
2016-10-20T10:29:08.690Z,65.17
2016-10-20T10:30:08.681Z,65.73
2016-10-20T10:31:08.633Z,65.63
2016-10-20T10:32:09.300Z,65.61
2016-10-20T10:33:08.567Z,65.84
2016-10-20T10:34:08.317Z,65.77
2016-10-20T10:35:07.968Z,66.32
2016-10-20T10:36:07.591Z,66.74
2016-10-20T10:37:08.371Z,65.64
2016-10-20T10:38:08.080Z,66.37
2016-10-20T10:39:07.883Z,66.29
2016-10-20T10:40:08.904Z,67.44
2016-10-20T10:41:08.696Z,67.46
2016-10-20T10:42:08.675Z,67.45
2016-10-20T10:43:08.452Z,65.27
2016-10-20T10:44:08.245Z,65.59
2016-10-20T10:45:08.005Z,65.66
2016-10-20T10:46:07.687Z,65.33
2016-10-20T10:47:08.283Z,65.09
2016-10-20T10:48:08.033Z,65.43
2016-10-20T10:49:07.755Z,64.97
2016-10-20T10:50:08.584Z,62.38
2016-10-20T10:51:08.329Z,63.76
2016-10-20T10:52:08.024Z,63.98
2016-10-20T10:53:07.501Z,63.49
2016-10-20T10:54:08.283Z,65.00
2016-10-20T10:55:07.944Z,63.22
2016-10-20T10:56:07.759Z,64.04
2016-10-20T10:57:08.605Z,63.10
2016-10-20T10:58:08.620Z,63.68
2016-10-20T10:59:08.650Z,64.41
2016-10-20T11:00:08.398Z,61.76
2016-10-20T11:01:08.351Z,61.32
2016-10-20T11:02:07.996Z,61.42
2016-10-20T11:03:07.577Z,60.65
2016-10-20T11:04:08.379Z,60.59
2016-10-20T11:05:08.005Z,62.57
2016-10-20T11:06:07.704Z,62.25
2016-10-20T11:07:08.751Z,61.40
2016-10-20T11:08:08.796Z,62.05
2016-10-20T11:09:08.491Z,60.28
2016-10-20T11:10:08.320Z,60.77
2016-10-20T11:11:08.003Z,61.40
2016-10-20T11:12:07.401Z,61.44
2016-10-20T11:13:08.118Z,60.95
2016-10-20T11:14:07.791Z,61.93
2016-10-20T11:15:08.723Z,63.79
2016-10-20T11:16:09.084Z,64.94
2016-10-20T11:17:07.771Z,64.87
2016-10-20T11:18:08.478Z,65.18
2016-10-20T11:19:08.172Z,65.30
2016-10-20T11:20:08.048Z,64.55
2016-10-20T11:21:07.751Z,64.73
2016-10-20T11:22:08.610Z,64.09
2016-10-20T11:23:08.429Z,64.15
2016-10-20T11:24:08.044Z,63.32
2016-10-20T11:25:07.472Z,63.04
2016-10-20T11:26:08.701Z,61.83
2016-10-20T11:27:08.820Z,61.82
2016-10-20T11:28:08.668Z,62.68
2016-10-20T11:29:08.304Z,63.91
2016-10-20T11:30:08.299Z,63.67
2016-10-20T11:31:08.263Z,62.93
2016-10-20T11:32:08.294Z,62.74
2016-10-20T11:33:07.787Z,63.15
2016-10-20T11:34:08.668Z,63.37
2016-10-20T11:35:11.403Z,62.76
2016-10-20T11:36:09.394Z,61.85
2016-10-20T11:37:08.336Z,62.00
2016-10-20T11:38:08.035Z,61.49
2016-10-20T11:39:07.628Z,61.76
2016-10-20T11:40:08.365Z,61.91
2016-10-20T11:41:08.346Z,61.33
2016-10-20T11:42:08.666Z,60.82
2016-10-20T11:43:08.411Z,61.07
2016-10-20T11:44:08.003Z,60.77
2016-10-20T11:45:07.571Z,61.53
2016-10-20T11:46:08.624Z,61.20
2016-10-20T11:47:08.373Z,61.11
2016-10-20T11:48:08.005Z,62.03
2016-10-20T11:49:07.545Z,60.98
2016-10-20T11:50:11.124Z,60.90
2016-10-20T11:51:07.705Z,60.70
2016-10-20T11:52:08.599Z,60.67
2016-10-20T11:53:08.817Z,61.17
2016-10-20T11:54:08.741Z,59.60
2016-10-20T11:55:08.600Z,59.06
2016-10-20T11:56:08.814Z,59.28
2016-10-20T11:57:08.700Z,60.76
2016-10-20T11:58:08.806Z,60.67
2016-10-20T11:59:09.042Z,61.23
2016-10-20T12:00:07.582Z,61.07
2016-10-20T12:01:08.344Z,60.55
2016-10-20T12:02:08.029Z,59.43
2016-10-20T12:03:07.852Z,57.87
2016-10-20T12:04:08.702Z,57.94
2016-10-20T12:05:08.394Z,59.35
2016-10-20T12:06:08.317Z,58.76
2016-10-20T12:07:07.895Z,58.36
2016-10-20T12:08:08.714Z,59.53
2016-10-20T12:09:08.355Z,60.47
2016-10-20T12:10:07.838Z,58.78
2016-10-20T12:11:08.803Z,57.66
2016-10-20T12:12:08.560Z,57.79
2016-10-20T12:13:08.454Z,57.98
2016-10-20T12:14:08.035Z,58.05
2016-10-20T12:15:07.576Z,57.81
2016-10-20T12:16:08.345Z,58.05
2016-10-20T12:17:08.093Z,56.94
2016-10-20T12:18:07.624Z,57.72
2016-10-20T12:19:07.726Z,58.06
2016-10-20T12:20:08.375Z,57.83
2016-10-20T12:21:08.008Z,57.52
2016-10-20T12:22:07.468Z,58.10
2016-10-20T12:23:08.395Z,58.62
2016-10-20T12:24:08.065Z,57.10
2016-10-20T12:25:07.543Z,56.82
2016-10-20T12:26:08.191Z,57.11
2016-10-20T12:27:07.878Z,56.93
2016-10-20T12:28:08.876Z,57.90
2016-10-20T12:29:08.872Z,57.96
2016-10-20T12:30:08.588Z,56.94
2016-10-20T12:31:08.560Z,56.70
2016-10-20T12:32:08.250Z,57.11
2016-10-20T12:33:07.800Z,56.76
2016-10-20T12:34:08.383Z,56.15
2016-10-20T12:35:07.995Z,56.37
2016-10-20T12:36:07.463Z,56.68
2016-10-20T12:37:08.396Z,56.73
2016-10-20T12:38:08.002Z,56.81
2016-10-20T12:39:07.519Z,56.52
2016-10-20T12:40:08.149Z,56.60
2016-10-20T12:41:07.630Z,56.86
2016-10-20T12:42:08.395Z,57.46
2016-10-20T12:43:08.086Z,56.30
2016-10-20T12:44:07.598Z,56.83
2016-10-20T12:45:08.142Z,56.69
2016-10-20T12:46:07.812Z,56.20
2016-10-20T12:47:08.914Z,56.36
2016-10-20T12:48:08.915Z,57.26
2016-10-20T12:49:08.735Z,56.65
2016-10-20T12:50:08.396Z,54.63
2016-10-20T12:51:07.837Z,55.03
2016-10-20T12:52:08.550Z,54.54